Temp: 7.7°C   Baro: 1005.3mb
  Wind: 4.9mph   Dir: W (261°)
  Rain: 1.0mm (1.2mm/hr)
  Sun: 0W/m2  Humidity: 94%

Historic data

Bath Spa Weather Station Historical Data
Daily Summary for October 22, 2022 Units:  Metric    English   Both
Daily Weekly Monthly Yearly Custom
  High: Low: Average:
Temperature: 16.7 °C 10.8 °C 14.3 °C
Dew Point: 13.8 °C 9.2 °C 12.3 °C
Humidity: 93.4% 80% 88%
Wind Speed: 14.2km/h 0km/h 4.8km/h
Wind Gust: 25.7km/h - -
Wind- - South
Pressure: 1010 hPa 1001.6 hPa -
Precipitation: 1.02 mm    
Historical Graphs
 
 
Tabular Data for October 22, 2022
Time Temperature Dew Point Pressure Wind Wind Speed Wind Gust Humidity Rainfall Rate (Hourly) solar
00:09 13.7 °C 12.3 °C 1001.6 hPa SSE 2.4 km/h 6.4 km/h 92% 0 mm 0 W/m2
00:14 13.7 °C 12.4 °C 1001.6 hPa South 1 km/h 6.4 km/h 92% 0 mm 0 W/m2
00:19 13.8 °C 12.5 °C 1001.6 hPa SW 3.2 km/h 11.3 km/h 92% 0 mm 0 W/m2
00:24 13.9 °C 12.6 °C 1001.9 hPa SSW 4.5 km/h 14.5 km/h 92% 0 mm 0 W/m2
00:29 14 °C 12.7 °C 1001.9 hPa SSW 6.6 km/h 12.9 km/h 92% 0 mm 0 W/m2
00:34 14.1 °C 12.8 °C 1001.9 hPa SSW 4 km/h 12.9 km/h 92% 0 mm 0 W/m2
00:39 14.1 °C 12.8 °C 1001.9 hPa South 2.6 km/h 8 km/h 92% 0 mm 0 W/m2
00:44 14.1 °C 12.8 °C 1001.9 hPa SSW 3.7 km/h 9.7 km/h 92% 0 mm 0 W/m2
00:49 14.1 °C 12.8 °C 1001.9 hPa SW 6.3 km/h 12.9 km/h 92% 0 mm 0 W/m2
00:54 14.1 °C 12.8 °C 1002.3 hPa SW 2.3 km/h 11.3 km/h 91.8% 0 mm 0 W/m2
00:59 14.1 °C 12.7 °C 1002.3 hPa SSW 5.3 km/h 11.3 km/h 91% 0 mm 0 W/m2
01:04 14.1 °C 12.7 °C 1002.3 hPa SSW 4.5 km/h 11.3 km/h 91% 0 mm 0 W/m2
01:09 14.1 °C 12.7 °C 1002.6 hPa SSW 5 km/h 12.9 km/h 91% 0 mm 0 W/m2
01:14 14 °C 12.6 °C 1002.6 hPa SW 6.4 km/h 14.5 km/h 91% 0 mm 0 W/m2
01:19 14 °C 12.6 °C 1002.9 hPa SSW 5.1 km/h 9.7 km/h 91% 0 mm 0 W/m2
01:24 13.9 °C 12.4 °C 1002.9 hPa WSW 4.5 km/h 9.7 km/h 90.4% 0 mm 0 W/m2
01:29 13.9 °C 12.4 °C 1002.9 hPa SW 3.2 km/h 9.7 km/h 90.6% 0 mm 0 W/m2
01:34 13.9 °C 12.4 °C 1002.9 hPa WSW 5.3 km/h 17.7 km/h 90.6% 0 mm 0 W/m2
01:39 14 °C 12.4 °C 1002.9 hPa WSW 4.3 km/h 11.3 km/h 90% 0 mm 0 W/m2
01:44 14.1 °C 12.5 °C 1002.9 hPa WSW 6.4 km/h 12.9 km/h 90% 0 mm 0 W/m2
01:49 14.1 °C 12.5 °C 1002.9 hPa WSW 4.3 km/h 9.7 km/h 90% 0 mm 0 W/m2
01:54 14.1 °C 12.5 °C 1003.3 hPa WSW 2.3 km/h 9.7 km/h 90% 0 mm 0 W/m2
01:59 14.1 °C 12.5 °C 1003.3 hPa SW 6 km/h 17.7 km/h 90% 0 mm 0 W/m2
02:04 14.1 °C 12.5 °C 1003.3 hPa WSW 5.3 km/h 16.1 km/h 90% 0 mm 0 W/m2
02:09 14.1 °C 12.4 °C 1003.6 hPa SSW 6.4 km/h 16.1 km/h 90% 0 mm 0 W/m2
02:14 14 °C 12.4 °C 1003.6 hPa SW 9.8 km/h 16.1 km/h 90% 0 mm 0 W/m2
02:19 14 °C 12.2 °C 1003.6 hPa WSW 10.6 km/h 17.7 km/h 89% 0 mm 0 W/m2
02:24 13.9 °C 12.1 °C 1003.9 hPa WSW 10.6 km/h 17.7 km/h 89% 0 mm 0 W/m2
02:29 13.9 °C 12.1 °C 1003.9 hPa SW 8.2 km/h 14.5 km/h 89% 0 mm 0 W/m2
02:34 13.8 °C 12 °C 1003.9 hPa WSW 4.5 km/h 8 km/h 89% 0 mm 0 W/m2
02:39 13.8 °C 12 °C 1003.9 hPa WSW 4.5 km/h 11.3 km/h 89% 0 mm 0 W/m2
02:44 13.8 °C 12 °C 1004.3 hPa WSW 4.7 km/h 11.3 km/h 89% 0 mm 0 W/m2
02:49 13.7 °C 11.9 °C 1004.3 hPa SW 4.5 km/h 11.3 km/h 89% 0 mm 0 W/m2
02:54 13.8 °C 11.9 °C 1004.3 hPa SW 7.7 km/h 25.7 km/h 89% 0 mm 0 W/m2
02:59 13.8 °C 12 °C 1004.3 hPa SW 8.7 km/h 25.7 km/h 89% 0 mm 0 W/m2
03:04 13.8 °C 12 °C 1004.6 hPa SW 6.6 km/h 16.1 km/h 89% 0 mm 0 W/m2
03:09 13.7 °C 11.8 °C 1004.6 hPa SW 7.2 km/h 14.5 km/h 88.2% 0 mm 0 W/m2
03:14 13.7 °C 11.7 °C 1004.6 hPa WSW 7.2 km/h 19.3 km/h 88% 0 mm 0 W/m2
03:19 13.6 °C 11.6 °C 1004.6 hPa SW 12.2 km/h 19.3 km/h 88% 0 mm 0 W/m2
03:24 13.4 °C 11.5 °C 1004.6 hPa SW 10.9 km/h 22.5 km/h 88% 0 mm 0 W/m2
03:29 13.3 °C 11.4 °C 1004.6 hPa SW 11.3 km/h 22.5 km/h 88% 0 mm 0 W/m2
03:34 13.2 °C 11.1 °C 1004.6 hPa SW 10 km/h 24.1 km/h 87% 0 mm 0 W/m2
03:39 13.2 °C 11.1 °C 1004.6 hPa SW 8.5 km/h 14.5 km/h 87% 0 mm 0 W/m2
03:44 13.1 °C 10.9 °C 1005 hPa SW 6.9 km/h 12.9 km/h 87% 0 mm 0 W/m2
03:49 12.8 °C 10.8 °C 1005 hPa WSW 6.6 km/h 12.9 km/h 87% 0 mm 0 W/m2
03:54 12.8 °C 10.7 °C 1005 hPa WSW 8.2 km/h 12.9 km/h 87% 0 mm 0 W/m2
03:59 12.8 °C 10.7 °C 1005 hPa WSW 8.2 km/h 16.1 km/h 87% 0 mm 0 W/m2
04:04 12.8 °C 10.7 °C 1005 hPa SW 10.9 km/h 16.1 km/h 87% 0 mm 0 W/m2
04:09 12.8 °C 10.7 °C 1005 hPa SSW 5.3 km/h 12.9 km/h 87% 0 mm 0 W/m2
04:14 12.7 °C 10.6 °C 1005 hPa SW 7.7 km/h 12.9 km/h 87% 0 mm 0 W/m2
04:19 12.6 °C 10.5 °C 1005 hPa SW 6.1 km/h 12.9 km/h 87% 0 mm 0 W/m2
04:24 12.5 °C 10.4 °C 1005.3 hPa SW 4.3 km/h 12.9 km/h 87% 0 mm 0 W/m2
04:29 12.4 °C 10.3 °C 1005.3 hPa SW 5.6 km/h 14.5 km/h 87% 0 mm 0 W/m2
04:34 12.3 °C 10.2 °C 1005.3 hPa WSW 7.7 km/h 16.1 km/h 87% 0 mm 0 W/m2
04:39 12.3 °C 10.2 °C 1005.3 hPa SW 6.4 km/h 12.9 km/h 87% 0 mm 0 W/m2
04:44 12.3 °C 10.2 °C 1005.6 hPa WSW 2.9 km/h 11.3 km/h 87% 0 mm 0 W/m2
04:49 12.2 °C 10.2 °C 1005.6 hPa SSW 4.2 km/h 8 km/h 87% 0 mm 0 W/m2
04:54 12.2 °C 10.1 °C 1005.6 hPa SW 4.8 km/h 8 km/h 87% 0 mm 0 W/m2
04:59 12.1 °C 10 °C 1005.6 hPa SW 3.9 km/h 9.7 km/h 87% 0 mm 0 W/m2
05:04 12.1 °C 9.9 °C 1006 hPa WSW 4.5 km/h 9.7 km/h 87% 0 mm 0 W/m2
05:08 11.9 °C 9.8 °C 1006 hPa WSW 5.6 km/h 11.3 km/h 87% 0 mm 0 W/m2
05:14 11.9 °C 9.8 °C 1006 hPa WSW 4.7 km/h 11.3 km/h 87% 0 mm 0 W/m2
05:19 11.9 °C 9.8 °C 1006 hPa West 4.5 km/h 9.7 km/h 87% 0 mm 0 W/m2
05:24 11.8 °C 9.8 °C 1006 hPa WSW 5.1 km/h 14.5 km/h 87% 0 mm 0 W/m2
05:29 11.9 °C 9.8 °C 1006 hPa WSW 2.7 km/h 14.5 km/h 87% 0 mm 0 W/m2
05:34 11.8 °C 9.8 °C 1006.3 hPa WSW 2.7 km/h 6.4 km/h 87.4% 0 mm 0 W/m2
05:39 11.7 °C 9.8 °C 1006.3 hPa West 1.8 km/h 6.4 km/h 88% 0 mm 0 W/m2
05:44 11.7 °C 9.8 °C 1006.3 hPa West 1.4 km/h 4.8 km/h 88% 0 mm 0 W/m2
05:49 11.6 °C 9.7 °C 1006.3 hPa West 1.9 km/h 4.8 km/h 88% 0 mm 0 W/m2
05:54 11.6 °C 9.7 °C 1006.3 hPa West 1.9 km/h 4.8 km/h 88% 0 mm 0 W/m2
05:59 11.4 °C 9.6 °C 1006.3 hPa West 1.3 km/h 4.8 km/h 88% 0 mm 0 W/m2
06:04 11.4 °C 9.5 °C 1006.3 hPa WSW 2.3 km/h 6.4 km/h 88% 0 mm 0 W/m2
06:09 11.4 °C 9.6 °C 1006.3 hPa WSW 1.6 km/h 6.4 km/h 88% 0 mm 0 W/m2
06:14 11.5 °C 9.6 °C 1006.7 hPa WSW 1.6 km/h 4.8 km/h 88% 0 mm 0 W/m2
06:19 11.6 °C 9.7 °C 1006.7 hPa WSW 1.3 km/h 6.4 km/h 88.8% 0 mm 0 W/m2
06:24 11.6 °C 9.7 °C 1006.7 hPa Calm   4.8 km/h 88.2% 0 mm 0 W/m2
06:29 11.6 °C 9.7 °C 1006.7 hPa Calm     88.4% 0 mm 0 W/m2
06:34 11.3 °C 9.7 °C 1006.7 hPa Calm     89% 0 mm 0 W/m2
06:39 11.2 °C 9.5 °C 1007 hPa WSW 1.3 km/h 6.4 km/h 88.8% 0 mm 0 W/m2
06:44 11.3 °C 9.7 °C 1007 hPa Calm   4.8 km/h 89% 0 mm 0 W/m2
06:49 11.3 °C 9.6 °C 1007 hPa WSW 1.9 km/h 4.8 km/h 89% 0 mm 0 W/m2
06:54 11.2 °C 9.5 °C 1007 hPa WSW 3.2 km/h 6.4 km/h 89% 0 mm 0 W/m2
06:59 11.2 °C 9.5 °C 1007.3 hPa WSW 2.1 km/h 4.8 km/h 89% 0 mm 0 W/m2
07:04 11.3 °C 9.7 °C 1007.3 hPa SSW 5.1 km/h 11.3 km/h 89.2% 0 mm 0 W/m2
07:09 11.4 °C 9.8 °C 1007.3 hPa SW 2.1 km/h 8 km/h 89.4% 0 mm 0 W/m2
07:14 11.4 °C 9.7 °C 1007.3 hPa SW 3.9 km/h 6.4 km/h 89% 0 mm 0 W/m2
07:19 11.4 °C 9.7 °C 1007.3 hPa SW 0.6 km/h 6.4 km/h 89% 0 mm 0 W/m2
07:24 11.3 °C 9.6 °C 1007.7 hPa SW 1.3 km/h 4.8 km/h 89% 0 mm 0 W/m2
07:29 11.2 °C 9.5 °C 1007.7 hPa SW 0.3 km/h 4.8 km/h 89% 0 mm 0 W/m2
07:34 11.2 °C 9.5 °C 1007.7 hPa SW 1.6 km/h 6.4 km/h 89% 0 mm 0 W/m2
07:39 11.3 °C 9.6 °C 1007.7 hPa SW 1 km/h 4.8 km/h 89% 0 mm 0 W/m2
07:44 11.4 °C 9.7 °C 1008 hPa Calm   3.2 km/h 89.2% 0 mm 0 W/m2
07:49 11.3 °C 9.6 °C 1008 hPa SW 3.5 km/h 6.4 km/h 89.4% 0 mm 5 W/m2
07:54 11 °C 9.3 °C 1008 hPa SW 0.8 km/h 3.2 km/h 89% 0 mm 7 W/m2
07:59 10.8 °C 9.2 °C 1008 hPa SW 1.8 km/h 8 km/h 89.4% 0 mm 9 W/m2
08:04 10.9 °C 9.3 °C 1008.4 hPa WSW 1.3 km/h 4.8 km/h 90% 0 mm 11 W/m2
08:09 10.8 °C 9.3 °C 1008.4 hPa WSW 0.3 km/h 1.6 km/h 90% 0 mm 16 W/m2
08:14 10.8 °C 9.2 °C 1008.4 hPa WSW 1.9 km/h 4.8 km/h 90% 0 mm 19 W/m2
08:19 10.8 °C 9.2 °C 1008.4 hPa WSW 3.5 km/h 6.4 km/h 90% 0 mm 21 W/m2
08:24 10.8 °C 9.2 °C 1008.4 hPa WSW 3.1 km/h 6.4 km/h 90% 0 mm 25 W/m2
08:29 11 °C 9.4 °C 1008.7 hPa WSW 2.7 km/h 6.4 km/h 90% 0 mm 26 W/m2
08:34 11.2 °C 9.6 °C 1008.7 hPa WSW 2.7 km/h 6.4 km/h 90% 0 mm 30 W/m2
08:39 11.3 °C 9.7 °C 1008.7 hPa SW 3.7 km/h 8 km/h 90% 0 mm 32 W/m2
08:44 11.4 °C 9.8 °C 1008.4 hPa SW 1.9 km/h 6.4 km/h 90% 0 mm 33 W/m2
08:49 11.6 °C 10 °C 1008.7 hPa SW 1.4 km/h 6.4 km/h 90% 0 mm 37 W/m2
08:54 11.7 °C 10.2 °C 1008.7 hPa SW 1.3 km/h 6.4 km/h 90% 0 mm 39 W/m2
08:59 11.9 °C 10.3 °C 1008.7 hPa SW 4.5 km/h 6.4 km/h 90% 0 mm 40 W/m2
09:04 12.1 °C 10.5 °C 1008.7 hPa SW 3.9 km/h 6.4 km/h 90% 0 mm 44 W/m2
09:09 12.2 °C 10.7 °C 1008.7 hPa SW 3.9 km/h 11.3 km/h 90% 0 mm 51 W/m2
09:14 12.3 °C 10.8 °C 1008.7 hPa SW 3.9 km/h 11.3 km/h 90% 0 mm 60 W/m2
09:19 12.5 °C 10.9 °C 1009 hPa South 5.1 km/h 9.7 km/h 90% 0 mm 67 W/m2
09:24 12.7 °C 11 °C 1009 hPa SSW 4.5 km/h 9.7 km/h 89.8% 0 mm 81 W/m2
09:29 12.7 °C 10.9 °C 1009 hPa SW 5.1 km/h 9.7 km/h 89% 0 mm 90 W/m2
09:34 12.8 °C 11.1 °C 1009 hPa SW 3.2 km/h 6.4 km/h 89% 0 mm 109 W/m2
09:39 12.9 °C 11.2 °C 1009 hPa SW 1.6 km/h 4.8 km/h 89% 0 mm 118 W/m2
09:44 13.2 °C 11.4 °C 1009 hPa SW 2.1 km/h 6.4 km/h 89% 0 mm 132 W/m2
09:49 13.4 °C 11.6 °C 1009.4 hPa SSW 1.3 km/h 6.4 km/h 89% 0 mm 156 W/m2
09:54 13.7 °C 11.8 °C 1009.4 hPa SSW 1 km/h 3.2 km/h 89% 0 mm 181 W/m2
09:59 13.8 °C 11.8 °C 1009.4 hPa SSW 1.9 km/h 4.8 km/h 88% 0 mm 192 W/m2
10:04 13.8 °C 11.8 °C 1009.4 hPa SSW 1.9 km/h 4.8 km/h 88% 0 mm 162 W/m2
10:09 13.9 °C 11.8 °C 1009.4 hPa SSW 3.1 km/h 4.8 km/h 87.6% 0 mm 181 W/m2
10:14 13.9 °C 11.8 °C 1009.7 hPa SSW 3.5 km/h 6.4 km/h 87% 0 mm 230 W/m2
10:19 14.1 °C 12 °C 1009.7 hPa SW 2.7 km/h 8 km/h 87% 0 mm 257 W/m2
10:24 14.3 °C 12 °C 1009.7 hPa SW 2.1 km/h 4.8 km/h 86% 0 mm 253 W/m2
10:29 14.6 °C 12.3 °C 1009.7 hPa SW 4.5 km/h 9.7 km/h 86% 0 mm 207 W/m2
10:34 14.6 °C 12.2 °C 1009.7 hPa South 4 km/h 11.3 km/h 85.4% 0 mm 172 W/m2
10:39 14.6 °C 12.1 °C 1009.7 hPa SSW 5.5 km/h 9.7 km/h 85% 0 mm 176 W/m2
10:44 14.7 °C 12.2 °C 1009.7 hPa SSE 4.2 km/h 9.7 km/h 85% 0 mm 243 W/m2
10:49 14.8 °C 12.3 °C 1009.7 hPa South 3.2 km/h 8 km/h 85% 0 mm 223 W/m2
10:54 14.9 °C 12.4 °C 1009.7 hPa SSE 3.9 km/h 8 km/h 85% 0 mm 265 W/m2
10:59 15 °C 12.5 °C 1009.7 hPa SE 3.9 km/h 9.7 km/h 84.8% 0 mm 267 W/m2
11:04 15.1 °C 12.5 °C 1009.7 hPa South 5.3 km/h 11.3 km/h 84.4% 0 mm 200 W/m2
11:09 15.1 °C 12.4 °C 1009.7 hPa South 4.2 km/h 11.3 km/h 84.2% 0 mm 190 W/m2
11:14 15.3 °C 12.7 °C 1010 hPa South 5.1 km/h 9.7 km/h 84.4% 0 mm 279 W/m2
11:19 15.5 °C 12.8 °C 1009.7 hPa SSE 3.9 km/h 8 km/h 84% 0 mm 385 W/m2
11:24 15.8 °C 13.1 °C 1009.7 hPa SSW 5.8 km/h 9.7 km/h 83.7% 0 mm 343 W/m2
11:29 15.9 °C 13 °C 1010 hPa SSW 6 km/h 14.5 km/h 83% 0 mm 385 W/m2
11:34 15.9 °C 13 °C 1010 hPa South 8.4 km/h 16.1 km/h 83% 0 mm 399 W/m2
11:39 16 °C 13.1 °C 1010 hPa SSW 6 km/h 14.5 km/h 83% 0 mm 464 W/m2
11:44 16.1 °C 12.9 °C 1010 hPa SW 7.7 km/h 12.9 km/h 82% 0 mm 399 W/m2
11:49 16.1 °C 13.1 °C 1010 hPa South 3.2 km/h 11.3 km/h 82.6% 0 mm 445 W/m2
11:54 16.4 °C 13.4 °C 1010 hPa South 3.9 km/h 8 km/h 82.6% 0 mm 515 W/m2
11:59 16.7 °C 13.4 °C 1010 hPa South 6.3 km/h 16.1 km/h 81.6% 0 mm 297 W/m2
12:04 16.3 °C 13 °C 1010 hPa South 6.9 km/h 16.1 km/h 81% 0 mm 227 W/m2
12:09 16 °C 12.8 °C 1009.7 hPa South 8.4 km/h 19.3 km/h 81.6% 0 mm 125 W/m2
12:14 15.9 °C 12.8 °C 1009.7 hPa South 2.7 km/h 14.5 km/h 82.2% 0 mm 93 W/m2
12:19 15.9 °C 13.1 °C 1009.7 hPa SSE 1.9 km/h 6.4 km/h 83% 0 mm 288 W/m2
12:24 16.2 °C 13.4 °C 1009.7 hPa SSE 0.6 km/h 4.8 km/h 83.4% 0 mm 471 W/m2
12:29 16.6 °C 13.8 °C 1009.7 hPa SSE 2.7 km/h 6.4 km/h 83.6% 0 mm 446 W/m2
12:34 16.5 °C 13.4 °C 1009.7 hPa SSE 4.5 km/h 8 km/h 82.2% 0 mm 299 W/m2
12:39 16.2 °C 13.2 °C 1009.7 hPa South 5.3 km/h 9.7 km/h 82% 0 mm 206 W/m2
12:44 16.2 °C 13.1 °C 1009.7 hPa SSE 4.8 km/h 11.3 km/h 82% 0 mm 237 W/m2
12:49 16.2 °C 13.1 °C 1009.7 hPa SSW 5.5 km/h 16.1 km/h 82% 0 mm 255 W/m2
12:54 16.4 °C 13.3 °C 1009.7 hPa South 3.9 km/h 9.7 km/h 82% 0 mm 192 W/m2
12:59 16.6 °C 13.3 °C 1009.7 hPa South 6.8 km/h 12.9 km/h 81.2% 0 mm 149 W/m2
13:04 16.4 °C 13.1 °C 1009.7 hPa SSE 9.2 km/h 17.7 km/h 80.8% 0 mm 132 W/m2
13:09 16.3 °C 13 °C 1009.7 hPa SSW 6.6 km/h 16.1 km/h 81% 0 mm 125 W/m2
13:14 16.3 °C 12.9 °C 1009.7 hPa South 8 km/h 16.1 km/h 81% 0 mm 127 W/m2
13:19 16.2 °C 12.9 °C 1009.7 hPa South 5.8 km/h 16.1 km/h 81% 0 mm 311 W/m2
13:24 16.4 °C 13.1 °C 1009.7 hPa SW 7.1 km/h 12.9 km/h 81% 0 mm 320 W/m2
13:29 16.5 °C 13.1 °C 1009.7 hPa SSW 6.8 km/h 12.9 km/h 80.6% 0 mm 325 W/m2
13:34 16.6 °C 13.1 °C 1009.7 hPa SSW 6.8 km/h 14.5 km/h 80% 0 mm 325 W/m2
13:39 16.7 °C 13.3 °C 1009.7 hPa SSW 8.2 km/h 16.1 km/h 80.2% 0 mm 281 W/m2
13:44 16.7 °C 13.2 °C 1009.7 hPa SW 7.7 km/h 16.1 km/h 80% 0 mm 279 W/m2
13:49 16.7 °C 13.2 °C 1009.7 hPa SSW 9.2 km/h 16.1 km/h 80% 0 mm 271 W/m2
13:54 16.7 °C 13.3 °C 1009.7 hPa South 10.9 km/h 19.3 km/h 81% 0 mm 243 W/m2
13:59 16.4 °C 13.2 °C 1009.7 hPa South 9.7 km/h 19.3 km/h 81.2% 0 mm 216 W/m2
14:04 16.4 °C 13.3 °C 1009.7 hPa SSW 4.8 km/h 16.1 km/h 82% 0 mm 197 W/m2
14:09 16.4 °C 13.3 °C 1009.4 hPa South 7.1 km/h 20.9 km/h 82% 0 mm 195 W/m2
14:14 16.3 °C 13.2 °C 1009.4 hPa South 14.2 km/h 19.3 km/h 82% 0 mm 195 W/m2
14:19 16.3 °C 13.3 °C 1009.4 hPa SW 12.6 km/h 25.7 km/h 82.4% 0 mm 192 W/m2
14:24 16.3 °C 13.4 °C 1009.4 hPa South 7.2 km/h 19.3 km/h 83% 0 mm 174 W/m2
14:29 16.3 °C 13.4 °C 1009.4 hPa South 7.7 km/h 17.7 km/h 83% 0 mm 169 W/m2
14:34 16.4 °C 13.5 °C 1009.4 hPa South 6.6 km/h 12.9 km/h 83% 0 mm 183 W/m2
14:39 16.4 °C 13.5 °C 1009.4 hPa South 6.4 km/h 14.5 km/h 83% 0 mm 172 W/m2
14:44 16.4 °C 13.5 °C 1009.4 hPa South 5.8 km/h 16.1 km/h 83% 0 mm 153 W/m2
14:49 16.4 °C 13.5 °C 1009.4 hPa South 5.3 km/h 16.1 km/h 83% 0 mm 165 W/m2
14:54 16.4 °C 13.5 °C 1009.4 hPa South 5.5 km/h 16.1 km/h 83% 0 mm 165 W/m2
14:59 16.3 °C 13.4 °C 1009.4 hPa South 6.6 km/h 17.7 km/h 83% 0 mm 148 W/m2
15:04 16.4 °C 13.6 °C 1009.4 hPa South 4.7 km/h 14.5 km/h 83.6% 0 mm 139 W/m2
15:09 16.4 °C 13.7 °C 1009.4 hPa South 6.6 km/h 11.3 km/h 83.8% 0 mm 132 W/m2
15:14 16.3 °C 13.7 °C 1009.4 hPa South 5.1 km/h 11.3 km/h 84% 0 mm 127 W/m2
15:19 16.4 °C 13.7 °C 1009.4 hPa SE 5.1 km/h 11.3 km/h 84% 0 mm 123 W/m2
15:24 16.3 °C 13.7 °C 1009 hPa South 5.3 km/h 11.3 km/h 84% 0 mm 134 W/m2
15:29 16.4 °C 13.7 °C 1009 hPa South 4.7 km/h 12.9 km/h 83.8% 0 mm 144 W/m2
15:34 16.4 °C 13.5 °C 1009 hPa South 8.4 km/h 16.1 km/h 83% 0 mm 142 W/m2
15:39 16.4 °C 13.5 °C 1009 hPa South 9.2 km/h 14.5 km/h 83% 0 mm 137 W/m2
15:44 16.4 °C 13.5 °C 1009 hPa South 6 km/h 14.5 km/h 83% 0 mm 118 W/m2
15:49 16.4 °C 13.5 °C 1009 hPa South 5.8 km/h 14.5 km/h 83% 0 mm 111 W/m2
15:54 16.4 °C 13.5 °C 1009 hPa South 6 km/h 11.3 km/h 83% 0 mm 102 W/m2
15:59 16.5 °C 13.6 °C 1009 hPa SSE 4 km/h 8 km/h 83% 0 mm 120 W/m2
16:04 16.5 °C 13.6 °C 1009 hPa SSE 5 km/h 9.7 km/h 83% 0 mm 120 W/m2
16:09 16.4 °C 13.6 °C 1009 hPa SSE 5.8 km/h 9.7 km/h 83% 0 mm 97 W/m2
16:14 16.4 °C 13.7 °C 1009 hPa SSE 3.1 km/h 8 km/h 83.8% 0 mm 74 W/m2
16:19 16.4 °C 13.7 °C 1009 hPa SSE 7.2 km/h 12.9 km/h 84% 0 mm 60 W/m2
16:24 16.3 °C 13.6 °C 1009 hPa South 7.6 km/h 12.9 km/h 84% 0 mm 53 W/m2
16:29 16.3 °C 13.6 °C 1009 hPa SSE 6.1 km/h 12.9 km/h 84% 0 mm 56 W/m2
16:34 16.3 °C 13.6 °C 1009 hPa SSE 8.2 km/h 14.5 km/h 84% 0 mm 65 W/m2
16:39 16.2 °C 13.5 °C 1008.7 hPa SSE 6.4 km/h 14.5 km/h 84% 0 mm 62 W/m2
16:44 16.2 °C 13.5 °C 1008.7 hPa South 5.3 km/h 11.3 km/h 84% 0 mm 53 W/m2
16:49 16.2 °C 13.6 °C 1008.7 hPa SSE 4.5 km/h 11.3 km/h 84.4% 0 mm 39 W/m2
16:54 16.2 °C 13.7 °C 1008.7 hPa SSE 3.7 km/h 8 km/h 85% 0 mm 32 W/m2
16:59 16.2 °C 13.7 °C 1008.7 hPa SE 4.7 km/h 9.7 km/h 85% 0 mm 19 W/m2
17:04 16.2 °C 13.7 °C 1008.7 hPa SE 3.2 km/h 9.7 km/h 85% 0 mm 33 W/m2
17:09 16.1 °C 13.6 °C 1008.7 hPa SSE 5.5 km/h 9.7 km/h 85% 0 mm 33 W/m2
17:14 16.1 °C 13.6 °C 1009 hPa SSE 5.3 km/h 12.9 km/h 85% 0 mm 28 W/m2
17:19 16 °C 13.7 °C 1009 hPa SSE 6.4 km/h 12.9 km/h 85.8% 0 mm 32 W/m2
17:24 16 °C 13.7 °C 1009 hPa SSE 7.9 km/h 14.5 km/h 86% 0 mm 32 W/m2
17:29 15.9 °C 13.6 °C 1008.7 hPa SSE 6.4 km/h 12.9 km/h 86% 0 mm 26 W/m2
17:34 15.9 °C 13.6 °C 1008.7 hPa SSE 7.9 km/h 12.9 km/h 86% 0 mm 25 W/m2
17:39 15.9 °C 13.6 °C 1008.7 hPa SSE 3.2 km/h 12.9 km/h 86% 0 mm 19 W/m2
17:44 15.8 °C 13.5 °C 1008.7 hPa SSE 4.7 km/h 9.7 km/h 86% 0 mm 12 W/m2
17:49 15.8 °C 13.6 °C 1008.7 hPa SSE 7.6 km/h 11.3 km/h 86.6% 0 mm 9 W/m2
17:54 15.8 °C 13.6 °C 1008.7 hPa SSE 6 km/h 11.3 km/h 87% 0 mm 5 W/m2
17:59 15.8 °C 13.6 °C 1009 hPa SSE 3.9 km/h 9.7 km/h 86.8% 0 mm 0 W/m2
18:04 15.7 °C 13.5 °C 1009 hPa SSE 6.6 km/h 11.3 km/h 87% 0 mm 0 W/m2
18:09 15.7 °C 13.5 °C 1009 hPa SE 7.2 km/h 12.9 km/h 87% 0 mm 0 W/m2
18:14 15.7 °C 13.5 °C 1009 hPa SSE 6.4 km/h 9.7 km/h 87% 0 mm 0 W/m2
18:19 15.7 °C 13.5 °C 1009 hPa SSE 5.1 km/h 9.7 km/h 87% 0 mm 0 W/m2
18:24 15.7 °C 13.5 °C 1009 hPa SE 4 km/h 9.7 km/h 87% 0 mm 0 W/m2
18:29 15.6 °C 13.6 °C 1009 hPa SE 2.6 km/h 8 km/h 88% 0 mm 0 W/m2
18:34 15.6 °C 13.6 °C 1009 hPa SE 4.7 km/h 11.3 km/h 88% 0 mm 0 W/m2
18:39 15.6 °C 13.6 °C 1009 hPa SE 5 km/h 11.3 km/h 88% 0 mm 0 W/m2
18:44 15.6 °C 13.6 °C 1009.4 hPa SSE 5.8 km/h 9.7 km/h 88% 0 mm 0 W/m2
18:49 15.6 °C 13.6 °C 1009.4 hPa SSE 3.7 km/h 8 km/h 88% 0 mm 0 W/m2
18:54 15.5 °C 13.5 °C 1009 hPa SE 1.9 km/h 4.8 km/h 88% 0.51 mm 0 W/m2
18:59 15.4 °C 13.4 °C 1009 hPa Calm   1.6 km/h 88% 0.76 mm 0 W/m2
19:04 15.4 °C 13.5 °C 1009 hPa SE 0.6 km/h 3.2 km/h 88.4% 0.76 mm 0 W/m2
19:09 15.4 °C 13.6 °C 1009.4 hPa ESE 2.4 km/h 4.8 km/h 89% 0.76 mm 0 W/m2
19:14 15.3 °C 13.5 °C 1009.4 hPa ESE 3.1 km/h 9.7 km/h 89% 1.02 mm 0 W/m2
19:19 15.2 °C 13.4 °C 1009.4 hPa SE 3.1 km/h 8 km/h 89.2% 1.02 mm 0 W/m2
19:24 15.1 °C 13.5 °C 1009.4 hPa SE 4.5 km/h 9.7 km/h 90% 1.02 mm 0 W/m2
19:29 15 °C 13.4 °C 1009.4 hPa SE 4 km/h 9.7 km/h 90% 1.02 mm 0 W/m2
19:34 14.9 °C 13.4 °C 1009.4 hPa ESE 3.2 km/h 6.4 km/h 90.8% 1.02 mm 0 W/m2
19:39 14.9 °C 13.4 °C 1009.4 hPa ESE 3.9 km/h 6.4 km/h 91% 1.02 mm 0 W/m2
19:44 14.9 °C 13.4 °C 1009.4 hPa ESE 4.7 km/h 9.7 km/h 91% 1.02 mm 0 W/m2
19:49 14.8 °C 13.3 °C 1009.4 hPa SE 3.2 km/h 8 km/h 91% 1.02 mm 0 W/m2
19:54 14.8 °C 13.3 °C 1009.4 hPa SE 7.1 km/h 11.3 km/h 91% 0.76 mm 0 W/m2
19:59 14.8 °C 13.4 °C 1009.4 hPa SE 3.9 km/h 9.7 km/h 91.6% 0.51 mm 0 W/m2
20:04 14.8 °C 13.5 °C 1009.4 hPa SE 3.7 km/h 8 km/h 92% 0.25 mm 0 W/m2
20:09 14.8 °C 13.4 °C 1009.4 hPa SE 3.2 km/h 9.7 km/h 92% 0.25 mm 0 W/m2
20:14 14.8 °C 13.5 °C 1009.4 hPa SE 3.2 km/h 8 km/h 92% 0.25 mm 0 W/m2
20:19 14.7 °C 13.4 °C 1009.4 hPa SE 3.5 km/h 6.4 km/h 92% 0 mm 0 W/m2
20:24 14.8 °C 13.5 °C 1009.4 hPa SE 2.4 km/h 8 km/h 92% 0 mm 0 W/m2
20:29 14.8 °C 13.5 °C 1009.4 hPa SE 4 km/h 6.4 km/h 92% 0 mm 0 W/m2
20:34 14.7 °C 13.4 °C 1009.4 hPa SE 4.2 km/h 9.7 km/h 92% 0 mm 0 W/m2
20:39 14.8 °C 13.5 °C 1009.4 hPa SE 4 km/h 11.3 km/h 92% 0 mm 0 W/m2
20:44 14.8 °C 13.5 °C 1009.4 hPa SE 3.9 km/h 8 km/h 92% 0 mm 0 W/m2
20:49 14.8 °C 13.5 °C 1009.4 hPa SSE 2.7 km/h 8 km/h 92% 0 mm 0 W/m2
20:54 14.8 °C 13.5 °C 1009.4 hPa SE 1.6 km/h 8 km/h 92% 0 mm 0 W/m2
20:59 14.8 °C 13.5 °C 1009 hPa SE 3.2 km/h 11.3 km/h 92% 0 mm 0 W/m2
21:04 14.7 °C 13.4 °C 1009 hPa SE 3.9 km/h 9.7 km/h 92% 0 mm 0 W/m2
21:09 14.7 °C 13.6 °C 1009 hPa SE 6.4 km/h 12.9 km/h 92.8% 0 mm 0 W/m2
21:14 14.7 °C 13.7 °C 1009 hPa SE 5.1 km/h 12.9 km/h 93% 0 mm 0 W/m2
21:19 14.8 °C 13.7 °C 1009 hPa SSE 7.1 km/h 12.9 km/h 93% 0 mm 0 W/m2
21:24 14.8 °C 13.7 °C 1009 hPa SSE 7.6 km/h 12.9 km/h 93% 0 mm 0 W/m2
21:29 14.8 °C 13.7 °C 1009 hPa SE 6.4 km/h 14.5 km/h 93% 0 mm 0 W/m2
21:34 14.8 °C 13.7 °C 1009 hPa SSE 5.1 km/h 11.3 km/h 93% 0 mm 0 W/m2
21:39 14.9 °C 13.8 °C 1009 hPa SE 9.2 km/h 12.9 km/h 93% 0 mm 0 W/m2
21:44 14.9 °C 13.8 °C 1009 hPa SE 3.2 km/h 12.9 km/h 93% 0 mm 0 W/m2
21:49 14.8 °C 13.7 °C 1009 hPa SE 3.4 km/h 11.3 km/h 93% 0 mm 0 W/m2
21:54 14.8 °C 13.7 °C 1009 hPa SSE 5.1 km/h 12.9 km/h 93% 0 mm 0 W/m2
21:59 14.8 °C 13.7 °C 1009 hPa SE 3.4 km/h 12.9 km/h 93% 0 mm 0 W/m2
22:04 14.8 °C 13.7 °C 1009 hPa SE 6 km/h 11.3 km/h 93% 0 mm 0 W/m2
22:09 14.8 °C 13.7 °C 1009 hPa SE 4.7 km/h 11.3 km/h 93% 0 mm 0 W/m2
22:14 14.8 °C 13.7 °C 1009 hPa ESE 3.9 km/h 8 km/h 93% 0 mm 0 W/m2
22:19 14.8 °C 13.7 °C 1009 hPa ESE 5.8 km/h 12.9 km/h 93% 0 mm 0 W/m2
22:24 14.8 °C 13.7 °C 1009 hPa ESE 4.7 km/h 12.9 km/h 93% 0 mm 0 W/m2
22:29 14.7 °C 13.6 °C 1009 hPa ESE 3.7 km/h 11.3 km/h 93% 0 mm 0 W/m2
22:34 14.7 °C 13.6 °C 1009 hPa ESE 4.5 km/h 14.5 km/h 93% 0 mm 0 W/m2
22:39 14.7 °C 13.6 °C 1008.7 hPa ESE 8.2 km/h 16.1 km/h 93% 0 mm 0 W/m2
22:44 14.7 °C 13.6 °C 1008.7 hPa ESE 7.6 km/h 14.5 km/h 93% 0 mm 0 W/m2
22:49 14.7 °C 13.6 °C 1008.7 hPa ESE 6 km/h 8 km/h 93% 0 mm 0 W/m2
22:54 14.6 °C 13.5 °C 1008.7 hPa ESE 6.6 km/h 11.3 km/h 93% 0 mm 0 W/m2
22:59 14.6 °C 13.5 °C 1008.7 hPa ESE 3.9 km/h 11.3 km/h 93% 0 mm 0 W/m2
23:04 14.6 °C 13.5 °C 1008.7 hPa SE 6.8 km/h 12.9 km/h 93% 0 mm 0 W/m2
23:09 14.6 °C 13.5 °C 1008.7 hPa ESE 4.2 km/h 12.9 km/h 93% 0 mm 0 W/m2
23:14 14.6 °C 13.5 °C 1008.7 hPa ESE 7.1 km/h 12.9 km/h 93% 0 mm 0 W/m2
23:19 14.6 °C 13.5 °C 1008.7 hPa ESE 7.7 km/h 12.9 km/h 93% 0 mm 0 W/m2
23:24 14.6 °C 13.5 °C 1008.4 hPa East 6.3 km/h 16.1 km/h 93% 0 mm 0 W/m2
23:29 14.6 °C 13.4 °C 1008.4 hPa ESE 7.1 km/h 11.3 km/h 93% 0 mm 0 W/m2
23:34 14.5 °C 13.4 °C 1008.4 hPa ESE 6.3 km/h 12.9 km/h 93% 0 mm 0 W/m2
23:39 14.5 °C 13.4 °C 1008.4 hPa East 4 km/h 11.3 km/h 93% 0 mm 0 W/m2
23:44 14.4 °C 13.3 °C 1008.4 hPa ESE 5.8 km/h 12.9 km/h 93% 0 mm 0 W/m2
23:49 14.4 °C 13.3 °C 1008.4 hPa ESE 3.9 km/h 12.9 km/h 93% 0 mm 0 W/m2
23:54 14.4 °C 13.3 °C 1008.4 hPa East 5.3 km/h 11.3 km/h 93% 0 mm 0 W/m2
23:59 14.3 °C 13.3 °C 1008.4 hPa East 5.3 km/h 12.9 km/h 93.4% 0 mm 0 W/m2
Bath Spa Weather
Compliments of Weather Underground - 2 mb